sensor_id;sensor_type;location;lat;lon;timestamp;pressure;altitude;pressure_sealevel;temperature;humidity
65181;BME280;51765;48.112;11.766;2024-01-30T00:01:53;96839.16;;;-2.41;100.00
65181;BME280;51765;48.112;11.766;2024-01-30T00:04:20;96832.81;;;-2.50;100.00
65181;BME280;51765;48.112;11.766;2024-01-30T00:06:46;96834.75;;;-2.53;100.00
65181;BME280;51765;48.112;11.766;2024-01-30T00:09:13;96835.03;;;-2.58;100.00
65181;BME280;51765;48.112;11.766;2024-01-30T00:11:40;96830.34;;;-2.66;100.00
65181;BME280;51765;48.112;11.766;2024-01-30T00:14:07;96839.31;;;-2.59;100.00
65181;BME280;51765;48.112;11.766;2024-01-30T00:16:35;96842.38;;;-2.66;100.00
65181;BME280;51765;48.112;11.766;2024-01-30T00:19:02;96835.00;;;-2.72;100.00
65181;BME280;51765;48.112;11.766;2024-01-30T00:21:28;96840.25;;;-2.74;100.00
65181;BME280;51765;48.112;11.766;2024-01-30T00:23:55;96840.16;;;-2.72;100.00
65181;BME280;51765;48.112;11.766;2024-01-30T00:26:22;96841.00;;;-2.72;100.00
65181;BME280;51765;48.112;11.766;2024-01-30T00:28:48;96844.38;;;-2.71;100.00
65181;BME280;51765;48.112;11.766;2024-01-30T00:31:15;96839.59;;;-2.63;100.00
65181;BME280;51765;48.112;11.766;2024-01-30T00:33:43;96838.81;;;-2.64;100.00
65181;BME280;51765;48.112;11.766;2024-01-30T00:36:10;96833.53;;;-2.77;100.00
65181;BME280;51765;48.112;11.766;2024-01-30T00:38:37;96842.09;;;-2.76;100.00
65181;BME280;51765;48.112;11.766;2024-01-30T00:41:04;96840.44;;;-2.77;100.00
65181;BME280;51765;48.112;11.766;2024-01-30T00:43:30;96838.69;;;-2.77;100.00
65181;BME280;51765;48.112;11.766;2024-01-30T00:45:57;96837.97;;;-2.79;100.00
65181;BME280;51765;48.112;11.766;2024-01-30T00:48:24;96839.06;;;-2.83;100.00
65181;BME280;51765;48.112;11.766;2024-01-30T00:50:53;96837.66;;;-2.88;100.00
65181;BME280;51765;48.112;11.766;2024-01-30T00:53:20;96839.44;;;-2.89;100.00
65181;BME280;51765;48.112;11.766;2024-01-30T00:55:49;96836.56;;;-2.84;100.00
65181;BME280;51765;48.112;11.766;2024-01-30T00:58:15;96838.31;;;-2.85;100.00
65181;BME280;51765;48.112;11.766;2024-01-30T01:00:44;96831.34;;;-2.83;100.00
65181;BME280;51765;48.112;11.766;2024-01-30T01:03:11;96842.34;;;-2.81;100.00
65181;BME280;51765;48.112;11.766;2024-01-30T01:05:39;96833.16;;;-2.85;100.00
65181;BME280;51765;48.112;11.766;2024-01-30T01:08:07;96833.09;;;-2.83;100.00
65181;BME280;51765;48.112;11.766;2024-01-30T01:10:34;96835.72;;;-2.85;100.00
65181;BME280;51765;48.112;11.766;2024-01-30T01:13:01;96832.72;;;-2.91;100.00
65181;BME280;51765;48.112;11.766;2024-01-30T01:15:27;96841.63;;;-2.83;100.00
65181;BME280;51765;48.112;11.766;2024-01-30T01:17:57;96838.94;;;-2.96;100.00
65181;BME280;51765;48.112;11.766;2024-01-30T01:20:23;96837.56;;;-3.01;100.00
65181;BME280;51765;48.112;11.766;2024-01-30T01:22:50;96850.38;;;-3.01;100.00
65181;BME280;51765;48.112;11.766;2024-01-30T01:25:21;96838.94;;;-2.96;100.00
65181;BME280;51765;48.112;11.766;2024-01-30T01:27:48;96837.84;;;-2.91;100.00
65181;BME280;51765;48.112;11.766;2024-01-30T01:30:17;96845.50;;;-3.06;100.00
65181;BME280;51765;48.112;11.766;2024-01-30T01:32:51;96839.94;;;-3.13;100.00
65181;BME280;51765;48.112;11.766;2024-01-30T01:35:23;96842.59;;;-3.14;100.00
65181;BME280;51765;48.112;11.766;2024-01-30T01:37:50;96838.09;;;-3.11;100.00
65181;BME280;51765;48.112;11.766;2024-01-30T01:40:24;96842.09;;;-3.21;100.00
65181;BME280;51765;48.112;11.766;2024-01-30T01:42:54;96845.66;;;-3.23;100.00
65181;BME280;51765;48.112;11.766;2024-01-30T01:45:21;96841.44;;;-3.24;100.00
65181;BME280;51765;48.112;11.766;2024-01-30T01:47:48;96841.94;;;-3.18;100.00
65181;BME280;51765;48.112;11.766;2024-01-30T01:50:16;96836.34;;;-3.10;100.00
65181;BME280;51765;48.112;11.766;2024-01-30T01:52:45;96840.56;;;-3.09;100.00
65181;BME280;51765;48.112;11.766;2024-01-30T01:55:13;96837.56;;;-3.01;100.00
65181;BME280;51765;48.112;11.766;2024-01-30T01:57:44;96838.47;;;-3.02;100.00
65181;BME280;51765;48.112;11.766;2024-01-30T02:00:11;96836.09;;;-3.05;100.00
65181;BME280;51765;48.112;11.766;2024-01-30T02:02:46;96838.56;;;-3.04;100.00
65181;BME280;51765;48.112;11.766;2024-01-30T02:05:13;96834.16;;;-3.02;100.00
65181;BME280;51765;48.112;11.766;2024-01-30T02:07:40;96838.38;;;-3.01;100.00
65181;BME280;51765;48.112;11.766;2024-01-30T02:10:07;96838.38;;;-3.01;100.00
65181;BME280;51765;48.112;11.766;2024-01-30T02:12:34;96838.00;;;-3.09;100.00
65181;BME280;51765;48.112;11.766;2024-01-30T02:15:02;96835.63;;;-3.12;100.00
65181;BME280;51765;48.112;11.766;2024-01-30T02:17:30;96838.28;;;-3.14;100.00
65181;BME280;51765;48.112;11.766;2024-01-30T02:19:57;96840.09;;;-3.16;100.00
65181;BME280;51765;48.112;11.766;2024-01-30T02:22:25;96836.97;;;-3.21;100.00
65181;BME280;51765;48.112;11.766;2024-01-30T02:24:51;96830.75;;;-3.17;100.00
65181;BME280;51765;48.112;11.766;2024-01-30T02:27:18;96836.03;;;-3.20;100.00
65181;BME280;51765;48.112;11.766;2024-01-30T02:29:45;96838.16;;;-3.27;100.00
65181;BME280;51765;48.112;11.766;2024-01-30T02:32:11;96840.91;;;-3.30;100.00
65181;BME280;51765;48.112;11.766;2024-01-30T02:34:38;96839.34;;;-3.32;100.00
65181;BME280;51765;48.112;11.766;2024-01-30T02:37:05;96839.84;;;-3.41;100.00
65181;BME280;51765;48.112;11.766;2024-01-30T02:39:33;96829.94;;;-3.48;100.00
65181;BME280;51765;48.112;11.766;2024-01-30T02:41:59;96833.50;;;-3.50;100.00
65181;BME280;51765;48.112;11.766;2024-01-30T02:44:26;96827.63;;;-3.52;100.00
65181;BME280;51765;48.112;11.766;2024-01-30T02:46:53;96836.97;;;-3.51;100.00
65181;BME280;51765;48.112;11.766;2024-01-30T02:49:23;96834.50;;;-3.53;100.00
65181;BME280;51765;48.112;11.766;2024-01-30T02:51:50;96836.25;;;-3.53;100.00
65181;BME280;51765;48.112;11.766;2024-01-30T02:54:17;96836.16;;;-3.52;100.00
65181;BME280;51765;48.112;11.766;2024-01-30T02:56:45;96827.97;;;-3.58;100.00
65181;BME280;51765;48.112;11.766;2024-01-30T02:59:11;96831.44;;;-3.59;100.00
65181;BME280;51765;48.112;11.766;2024-01-30T03:01:44;96820.38;;;-3.60;100.00
65181;BME280;51765;48.112;11.766;2024-01-30T03:04:11;96829.88;;;-3.62;100.00
65181;BME280;51765;48.112;11.766;2024-01-30T03:06:38;96818.09;;;-3.65;100.00
65181;BME280;51765;48.112;11.766;2024-01-30T03:09:07;96821.13;;;-3.58;100.00
65181;BME280;51765;48.112;11.766;2024-01-30T03:11:35;96818.41;;;-3.55;100.00
65181;BME280;51765;48.112;11.766;2024-01-30T03:14:03;96823.34;;;-3.52;100.00
65181;BME280;51765;48.112;11.766;2024-01-30T03:16:29;96824.34;;;-3.54;100.00
65181;BME280;51765;48.112;11.766;2024-01-30T03:18:56;96814.72;;;-3.51;100.00
65181;BME280;51765;48.112;11.766;2024-01-30T03:21:22;96815.91;;;-3.56;100.00
65181;BME280;51765;48.112;11.766;2024-01-30T03:23:49;96821.13;;;-3.58;100.00
65181;BME280;51765;48.112;11.766;2024-01-30T03:26:16;96816.75;;;-3.56;100.00
65181;BME280;51765;48.112;11.766;2024-01-30T03:28:42;96816.00;;;-3.58;100.00
65181;BME280;51765;48.112;11.766;2024-01-30T03:31:12;96816.06;;;-3.59;100.00
65181;BME280;51765;48.112;11.766;2024-01-30T03:33:39;96814.34;;;-3.59;100.00
65181;BME280;51765;48.112;11.766;2024-01-30T03:36:06;96810.72;;;-3.55;100.00
65181;BME280;51765;48.112;11.766;2024-01-30T03:38:32;96813.19;;;-3.53;100.00
65181;BME280;51765;48.112;11.766;2024-01-30T03:40:59;96811.25;;;-3.50;100.00
65181;BME280;51765;48.112;11.766;2024-01-30T03:43:26;96805.22;;;-3.49;100.00
65181;BME280;51765;48.112;11.766;2024-01-30T03:45:53;96805.94;;;-3.47;100.00
65181;BME280;51765;48.112;11.766;2024-01-30T03:48:21;96810.94;;;-3.43;100.00
65181;BME280;51765;48.112;11.766;2024-01-30T03:50:47;96804.94;;;-3.58;100.00
65181;BME280;51765;48.112;11.766;2024-01-30T03:53:14;96805.44;;;-3.68;100.00
65181;BME280;51765;48.112;11.766;2024-01-30T03:55:41;96808.09;;;-3.69;100.00
65181;BME280;51765;48.112;11.766;2024-01-30T03:58:07;96805.34;;;-3.66;100.00
65181;BME280;51765;48.112;11.766;2024-01-30T04:00:34;96803.84;;;-3.70;100.00
65181;BME280;51765;48.112;11.766;2024-01-30T04:03:01;96801.16;;;-3.67;100.00
65181;BME280;51765;48.112;11.766;2024-01-30T04:05:29;96808.16;;;-3.55;100.00
65181;BME280;51765;48.112;11.766;2024-01-30T04:07:56;96805.59;;;-3.55;100.00
65181;BME280;51765;48.112;11.766;2024-01-30T04:10:23;96804.03;;;-3.57;100.00
65181;BME280;51765;48.112;11.766;2024-01-30T04:12:50;96807.97;;;-3.52;100.00
65181;BME280;51765;48.112;11.766;2024-01-30T04:15:16;96812.44;;;-3.55;100.00
65181;BME280;51765;48.112;11.766;2024-01-30T04:17:43;96809.56;;;-3.65;100.00
65181;BME280;51765;48.112;11.766;2024-01-30T04:20:13;96808.63;;;-3.79;100.00
65181;BME280;51765;48.112;11.766;2024-01-30T04:22:41;96810.59;;;-3.84;100.00
65181;BME280;51765;48.112;11.766;2024-01-30T04:25:07;96802.81;;;-3.82;100.00
65181;BME280;51765;48.112;11.766;2024-01-30T04:27:34;96800.25;;;-3.82;100.00
65181;BME280;51765;48.112;11.766;2024-01-30T04:30:01;96799.31;;;-3.65;100.00
65181;BME280;51765;48.112;11.766;2024-01-30T04:32:27;96802.66;;;-3.49;100.00
65181;BME280;51765;48.112;11.766;2024-01-30T04:34:54;96810.06;;;-3.28;100.00
65181;BME280;51765;48.112;11.766;2024-01-30T04:37:21;96791.16;;;-3.27;100.00
65181;BME280;51765;48.112;11.766;2024-01-30T04:39:49;96796.78;;;-3.20;100.00
65181;BME280;51765;48.112;11.766;2024-01-30T04:42:15;96800.53;;;-3.26;100.00
65181;BME280;51765;48.112;11.766;2024-01-30T04:44:43;96808.47;;;-3.31;100.00
65181;BME280;51765;48.112;11.766;2024-01-30T04:47:12;96800.22;;;-3.36;100.00
65181;BME280;51765;48.112;11.766;2024-01-30T04:49:39;96811.22;;;-3.34;100.00
65181;BME280;51765;48.112;11.766;2024-01-30T04:52:06;96802.50;;;-3.31;100.00
65181;BME280;51765;48.112;11.766;2024-01-30T04:54:32;96806.13;;;-3.19;100.00
65181;BME280;51765;48.112;11.766;2024-01-30T04:57:01;96805.75;;;-3.13;100.00
65181;BME280;51765;48.112;11.766;2024-01-30T04:59:27;96805.66;;;-3.12;100.00
65181;BME280;51765;48.112;11.766;2024-01-30T05:01:54;96801.47;;;-3.13;100.00
65181;BME280;51765;48.112;11.766;2024-01-30T05:04:21;96812.53;;;-3.12;100.00
65181;BME280;51765;48.112;11.766;2024-01-30T05:06:47;96804.84;;;-3.12;100.00
65181;BME280;51765;48.112;11.766;2024-01-30T05:09:14;96808.41;;;-3.15;100.00
65181;BME280;51765;48.112;11.766;2024-01-30T05:11:41;96810.25;;;-3.17;100.00
65181;BME280;51765;48.112;11.766;2024-01-30T05:14:09;96811.16;;;-3.18;100.00
65181;BME280;51765;48.112;11.766;2024-01-30T05:16:38;96809.50;;;-3.19;100.00
65181;BME280;51765;48.112;11.766;2024-01-30T05:19:05;96809.59;;;-3.20;100.00
65181;BME280;51765;48.112;11.766;2024-01-30T05:21:31;96807.81;;;-3.34;100.00
65181;BME280;51765;48.112;11.766;2024-01-30T05:24:00;96808.66;;;-3.34;100.00
65181;BME280;51765;48.112;11.766;2024-01-30T05:26:27;96810.78;;;-3.26;100.00
65181;BME280;51765;48.112;11.766;2024-01-30T05:28:54;96814.63;;;-3.19;100.00
65181;BME280;51765;48.112;11.766;2024-01-30T05:31:22;96813.91;;;-3.06;100.00
65181;BME280;51765;48.112;11.766;2024-01-30T05:33:52;96811.34;;;-3.06;100.00
65181;BME280;51765;48.112;11.766;2024-01-30T05:36:19;96812.94;;;-3.04;100.00
65181;BME280;51765;48.112;11.766;2024-01-30T05:38:50;96822.19;;;-3.01;100.00
65181;BME280;51765;48.112;11.766;2024-01-30T05:41:16;96821.81;;;-3.10;100.00
65181;BME280;51765;48.112;11.766;2024-01-30T05:43:43;96815.66;;;-3.07;100.00
65181;BME280;51765;48.112;11.766;2024-01-30T05:46:10;96824.47;;;-2.97;100.00
65181;BME280;51765;48.112;11.766;2024-01-30T05:48:39;96821.53;;;-2.90;100.00
65181;BME280;51765;48.112;11.766;2024-01-30T05:51:07;96825.56;;;-2.86;100.00
65181;BME280;51765;48.112;11.766;2024-01-30T05:53:34;96826.22;;;-2.83;100.00
65181;BME280;51765;48.112;11.766;2024-01-30T05:56:01;96828.88;;;-2.84;100.00
65181;BME280;51765;48.112;11.766;2024-01-30T05:58:28;96830.59;;;-2.85;100.00
65181;BME280;51765;48.112;11.766;2024-01-30T06:00:56;96826.94;;;-2.81;100.00
65181;BME280;51765;48.112;11.766;2024-01-30T06:03:25;96820.47;;;-2.72;100.00
65181;BME280;51765;48.112;11.766;2024-01-30T06:05:53;96829.88;;;-2.72;100.00
65181;BME280;51765;48.112;11.766;2024-01-30T06:08:20;96829.06;;;-2.73;100.00
65181;BME280;51765;48.112;11.766;2024-01-30T06:10:46;96826.94;;;-2.81;100.00
65181;BME280;51765;48.112;11.766;2024-01-30T06:13:14;96831.25;;;-2.81;100.00
65181;BME280;51765;48.112;11.766;2024-01-30T06:15:41;96834.53;;;-2.94;100.00
65181;BME280;51765;48.112;11.766;2024-01-30T06:18:08;96834.44;;;-3.06;100.00
65181;BME280;51765;48.112;11.766;2024-01-30T06:20:35;96835.72;;;-3.14;100.00
65181;BME280;51765;48.112;11.766;2024-01-30T06:23:03;96836.53;;;-3.13;100.00
65181;BME280;51765;48.112;11.766;2024-01-30T06:25:30;96836.09;;;-3.05;100.00
65181;BME280;51765;48.112;11.766;2024-01-30T06:27:56;96832.88;;;-2.95;100.00
65181;BME280;51765;48.112;11.766;2024-01-30T06:30:23;96834.53;;;-2.94;100.00
65181;BME280;51765;48.112;11.766;2024-01-30T06:32:50;96833.44;;;-3.04;100.00
65181;BME280;51765;48.112;11.766;2024-01-30T06:35:16;96831.34;;;-2.97;100.00
65181;BME280;51765;48.112;11.766;2024-01-30T06:37:46;96832.97;;;-2.96;100.00
65181;BME280;51765;48.112;11.766;2024-01-30T06:40:14;96831.97;;;-2.94;100.00
65181;BME280;51765;48.112;11.766;2024-01-30T06:42:41;96840.34;;;-2.90;100.00
65181;BME280;51765;48.112;11.766;2024-01-30T06:45:08;96834.00;;;-2.99;100.00
65181;BME280;51765;48.112;11.766;2024-01-30T06:47:35;96830.97;;;-2.91;100.00
65181;BME280;51765;48.112;11.766;2024-01-30T06:50:02;96838.97;;;-2.81;100.00
65181;BME280;51765;48.112;11.766;2024-01-30T06:52:28;96843.09;;;-2.79;100.00
65181;BME280;51765;48.112;11.766;2024-01-30T06:54:58;96848.41;;;-2.67;100.00
65181;BME280;51765;48.112;11.766;2024-01-30T06:57:29;96854.53;;;-2.55;100.00
65181;BME280;51765;48.112;11.766;2024-01-30T06:59:56;96856.47;;;-2.45;100.00
65181;BME280;51765;48.112;11.766;2024-01-30T07:02:22;96861.06;;;-2.35;100.00
65181;BME280;51765;48.112;11.766;2024-01-30T07:04:49;96856.81;;;-2.22;100.00
65181;BME280;51765;48.112;11.766;2024-01-30T07:07:16;96857.81;;;-2.10;100.00
65181;BME280;51765;48.112;11.766;2024-01-30T07:09:43;96860.25;;;-1.94;100.00
65181;BME280;51765;48.112;11.766;2024-01-30T07:12:09;96864.63;;;-1.82;100.00
65181;BME280;51765;48.112;11.766;2024-01-30T07:14:38;96864.53;;;-1.53;100.00
65181;BME280;51765;48.112;11.766;2024-01-30T07:17:04;96854.41;;;-0.76;100.00
65181;BME280;51765;48.112;11.766;2024-01-30T07:19:31;96850.69;;;-0.46;100.00
65181;BME280;51765;48.112;11.766;2024-01-30T07:21:58;96863.25;;;-0.54;100.00
65181;BME280;51765;48.112;11.766;2024-01-30T07:24:25;96862.34;;;-0.66;100.00
65181;BME280;51765;48.112;11.766;2024-01-30T07:26:52;96865.09;;;-0.69;100.00
65181;BME280;51765;48.112;11.766;2024-01-30T07:29:19;96865.94;;;-0.68;100.00
65181;BME280;51765;48.112;11.766;2024-01-30T07:31:47;96863.16;;;-0.65;100.00
65181;BME280;51765;48.112;11.766;2024-01-30T07:34:14;96863.03;;;-0.51;100.00
65181;BME280;51765;48.112;11.766;2024-01-30T07:36:40;96861.81;;;-0.45;100.00
65181;BME280;51765;48.112;11.766;2024-01-30T07:39:07;96867.88;;;-0.33;100.00
65181;BME280;51765;48.112;11.766;2024-01-30T07:41:35;96858.69;;;-0.25;100.00
65181;BME280;51765;48.112;11.766;2024-01-30T07:44:02;96861.25;;;-0.12;100.00
65181;BME280;51765;48.112;11.766;2024-01-30T07:46:29;96863.78;;;0.01;100.00
65181;BME280;51765;48.112;11.766;2024-01-30T07:48:57;96864.47;;;0.16;100.00
65181;BME280;51765;48.112;11.766;2024-01-30T07:51:24;96867.47;;;0.23;100.00
65181;BME280;51765;48.112;11.766;2024-01-30T07:53:51;96869.41;;;0.43;100.00
65181;BME280;51765;48.112;11.766;2024-01-30T07:56:17;96865.38;;;0.52;100.00
65181;BME280;51765;48.112;11.766;2024-01-30T07:58:44;96865.09;;;0.68;100.00
65181;BME280;51765;48.112;11.766;2024-01-30T08:01:11;96861.00;;;0.77;100.00
65181;BME280;51765;48.112;11.766;2024-01-30T08:03:38;96862.16;;;0.97;100.00
65181;BME280;51765;48.112;11.766;2024-01-30T08:06:09;96861.84;;;1.13;100.00
65181;BME280;51765;48.112;11.766;2024-01-30T08:08:36;96857.84;;;1.20;100.00
65181;BME280;51765;48.112;11.766;2024-01-30T08:11:05;96865.06;;;1.39;100.00
65181;BME280;51765;48.112;11.766;2024-01-30T08:13:33;96868.09;;;1.56;100.00
65181;BME280;51765;48.112;11.766;2024-01-30T08:16:00;96872.84;;;1.73;100.00
65181;BME280;51765;48.112;11.766;2024-01-30T08:18:26;96866.47;;;1.88;100.00
65181;BME280;51765;48.112;11.766;2024-01-30T08:20:53;96869.41;;;2.07;100.00
65181;BME280;51765;48.112;11.766;2024-01-30T08:23:22;96869.38;;;2.18;100.00
65181;BME280;51765;48.112;11.766;2024-01-30T08:25:49;96872.41;;;2.46;100.00
65181;BME280;51765;48.112;11.766;2024-01-30T08:28:15;96867.28;;;2.67;100.00
65181;BME280;51765;48.112;11.766;2024-01-30T08:30:42;96869.09;;;2.76;100.00
65181;BME280;51765;48.112;11.766;2024-01-30T08:33:09;96868.19;;;2.98;100.00
65181;BME280;51765;48.112;11.766;2024-01-30T08:35:36;96864.97;;;3.06;100.00
65181;BME280;51765;48.112;11.766;2024-01-30T08:38:05;96865.34;;;3.22;100.00
65181;BME280;51765;48.112;11.766;2024-01-30T08:40:33;96857.81;;;3.40;100.00
65181;BME280;51765;48.112;11.766;2024-01-30T08:43:00;96863.81;;;3.62;100.00
65181;BME280;51765;48.112;11.766;2024-01-30T08:45:27;96858.22;;;3.67;100.00
65181;BME280;51765;48.112;11.766;2024-01-30T08:47:56;96852.03;;;3.89;100.00
65181;BME280;51765;48.112;11.766;2024-01-30T08:50:23;96854.44;;;4.11;100.00
65181;BME280;51765;48.112;11.766;2024-01-30T08:52:52;96868.41;;;4.40;100.00
65181;BME280;51765;48.112;11.766;2024-01-30T08:55:19;96854.53;;;4.60;100.00
65181;BME280;51765;48.112;11.766;2024-01-30T08:57:47;96849.34;;;4.80;100.00
65181;BME280;51765;48.112;11.766;2024-01-30T09:00:14;96860.09;;;5.05;100.00
65181;BME280;51765;48.112;11.766;2024-01-30T09:02:42;96857.75;;;5.31;100.00
65181;BME280;51765;48.112;11.766;2024-01-30T09:05:09;96858.16;;;5.46;100.00
65181;BME280;51765;48.112;11.766;2024-01-30T09:07:38;96863.81;;;5.69;100.00
65181;BME280;51765;48.112;11.766;2024-01-30T09:10:06;96865.38;;;5.90;100.00
65181;BME280;51765;48.112;11.766;2024-01-30T09:12:33;96866.84;;;6.12;100.00
65181;BME280;51765;48.112;11.766;2024-01-30T09:15:01;96860.84;;;6.29;100.00
65181;BME280;51765;48.112;11.766;2024-01-30T09:17:28;96867.03;;;6.46;100.00
65181;BME280;51765;48.112;11.766;2024-01-30T09:19:55;96871.81;;;6.69;100.00
65181;BME280;51765;48.112;11.766;2024-01-30T09:22:23;96867.81;;;6.93;100.00
65181;BME280;51765;48.112;11.766;2024-01-30T09:24:50;96883.81;;;7.16;100.00
65181;BME280;51765;48.112;11.766;2024-01-30T09:27:16;96874.63;;;7.30;100.00
65181;BME280;51765;48.112;11.766;2024-01-30T09:29:43;96875.88;;;7.44;100.00
65181;BME280;51765;48.112;11.766;2024-01-30T09:32:12;96877.59;;;7.61;100.00
65181;BME280;51765;48.112;11.766;2024-01-30T09:34:38;96874.72;;;7.72;100.00
65181;BME280;51765;48.112;11.766;2024-01-30T09:37:05;96882.34;;;7.92;100.00
65181;BME280;51765;48.112;11.766;2024-01-30T09:39:32;96885.16;;;7.99;100.00
65181;BME280;51765;48.112;11.766;2024-01-30T09:42:05;96882.94;;;8.20;100.00
65181;BME280;51765;48.112;11.766;2024-01-30T09:44:32;96885.63;;;8.37;100.00
65181;BME280;51765;48.112;11.766;2024-01-30T09:47:01;96878.47;;;8.39;97.86
65181;BME280;51765;48.112;11.766;2024-01-30T09:49:32;96874.44;;;8.61;99.41
65181;BME280;51765;48.112;11.766;2024-01-30T09:52:00;96881.53;;;8.85;100.00
65181;BME280;51765;48.112;11.766;2024-01-30T09:54:28;96883.69;;;8.98;100.00
65181;BME280;51765;48.112;11.766;2024-01-30T09:56:56;96879.25;;;9.07;100.00
65181;BME280;51765;48.112;11.766;2024-01-30T09:59:23;96876.00;;;9.30;100.00
65181;BME280;51765;48.112;11.766;2024-01-30T10:01:50;96878.94;;;9.43;100.00
65181;BME280;51765;48.112;11.766;2024-01-30T10:04:17;96878.44;;;9.56;100.00
65181;BME280;51765;48.112;11.766;2024-01-30T10:06:45;96875.13;;;9.70;100.00
65181;BME280;51765;48.112;11.766;2024-01-30T10:09:12;96869.50;;;9.90;92.43
65181;BME280;51765;48.112;11.766;2024-01-30T10:11:40;96868.84;;;10.04;86.56
65181;BME280;51765;48.112;11.766;2024-01-30T10:14:09;96859.09;;;10.21;82.78
65181;BME280;51765;48.112;11.766;2024-01-30T10:16:36;96861.66;;;10.38;80.75
65181;BME280;51765;48.112;11.766;2024-01-30T10:19:03;96857.38;;;10.45;76.33
65181;BME280;51765;48.112;11.766;2024-01-30T10:21:33;96857.16;;;10.55;80.12
65181;BME280;51765;48.112;11.766;2024-01-30T10:24:01;96858.03;;;10.47;77.00
65181;BME280;51765;48.112;11.766;2024-01-30T10:26:30;96853.94;;;10.44;86.04
65181;BME280;51765;48.112;11.766;2024-01-30T10:28:59;96858.41;;;10.27;88.39
65181;BME280;51765;48.112;11.766;2024-01-30T10:31:26;96857.50;;;10.12;90.41
65181;BME280;51765;48.112;11.766;2024-01-30T10:33:53;96858.44;;;10.19;90.41
65181;BME280;51765;48.112;11.766;2024-01-30T10:36:20;96850.41;;;10.21;88.13
65181;BME280;51765;48.112;11.766;2024-01-30T10:38:51;96848.16;;;10.49;88.53
65181;BME280;51765;48.112;11.766;2024-01-30T10:41:19;96837.81;;;10.56;88.95
65181;BME280;51765;48.112;11.766;2024-01-30T10:43:54;96839.22;;;10.67;90.77
65181;BME280;51765;48.112;11.766;2024-01-30T10:46:25;96835.25;;;10.71;93.00
65181;BME280;51765;48.112;11.766;2024-01-30T10:48:56;96833.56;;;10.78;92.79
65181;BME280;51765;48.112;11.766;2024-01-30T10:51:25;96836.50;;;10.83;95.99
65181;BME280;51765;48.112;11.766;2024-01-30T10:53:53;96834.50;;;10.85;97.63
65181;BME280;51765;48.112;11.766;2024-01-30T10:56:21;96827.91;;;10.89;97.27
65181;BME280;51765;48.112;11.766;2024-01-30T10:58:49;96825.34;;;11.04;97.17
65181;BME280;51765;48.112;11.766;2024-01-30T11:01:16;96824.22;;;11.22;97.99
65181;BME280;51765;48.112;11.766;2024-01-30T11:03:44;96818.44;;;11.26;93.56
65181;BME280;51765;48.112;11.766;2024-01-30T11:06:10;96806.69;;;11.37;91.93
65181;BME280;51765;48.112;11.766;2024-01-30T11:08:39;96804.63;;;11.47;90.23
65181;BME280;51765;48.112;11.766;2024-01-30T11:11:08;96809.84;;;11.32;90.56
65181;BME280;51765;48.112;11.766;2024-01-30T11:13:36;96810.56;;;11.26;88.63
65181;BME280;51765;48.112;11.766;2024-01-30T11:16:04;96806.19;;;11.19;88.91
65181;BME280;51765;48.112;11.766;2024-01-30T11:18:33;96802.84;;;11.10;90.77
65181;BME280;51765;48.112;11.766;2024-01-30T11:21:04;96803.72;;;11.02;93.12
65181;BME280;51765;48.112;11.766;2024-01-30T11:23:33;96802.25;;;11.00;95.93
65181;BME280;51765;48.112;11.766;2024-01-30T11:25:59;96797.50;;;10.80;93.76
65181;BME280;51765;48.112;11.766;2024-01-30T11:28:32;96792.72;;;10.84;91.88
65181;BME280;51765;48.112;11.766;2024-01-30T11:31:04;96795.84;;;11.02;90.81
65181;BME280;51765;48.112;11.766;2024-01-30T11:33:32;96786.84;;;11.35;89.57
65181;BME280;51765;48.112;11.766;2024-01-30T11:35:59;96793.06;;;11.19;91.42
65181;BME280;51765;48.112;11.766;2024-01-30T11:38:27;96795.56;;;11.35;91.67
65181;BME280;51765;48.112;11.766;2024-01-30T11:40:54;96789.31;;;11.36;92.37
65181;BME280;51765;48.112;11.766;2024-01-30T11:43:21;96784.84;;;11.22;93.58
65181;BME280;51765;48.112;11.766;2024-01-30T11:45:48;96786.41;;;11.31;88.77
65181;BME280;51765;48.112;11.766;2024-01-30T11:48:16;96782.63;;;11.63;88.91
65181;BME280;51765;48.112;11.766;2024-01-30T11:50:43;96782.59;;;12.23;84.40
65181;BME280;51765;48.112;11.766;2024-01-30T11:53:11;96776.53;;;12.44;79.60
65181;BME280;51765;48.112;11.766;2024-01-30T11:55:38;96781.81;;;12.44;81.13
65181;BME280;51765;48.112;11.766;2024-01-30T11:58:08;96777.84;;;12.77;80.12
65181;BME280;51765;48.112;11.766;2024-01-30T12:00:36;96761.47;;;13.03;77.74
65181;BME280;51765;48.112;11.766;2024-01-30T12:03:03;96767.03;;;13.15;76.17
65181;BME280;51765;48.112;11.766;2024-01-30T12:05:36;96761.19;;;13.19;75.10
65181;BME280;51765;48.112;11.766;2024-01-30T12:08:13;96754.59;;;13.02;76.68
65181;BME280;51765;48.112;11.766;2024-01-30T12:10:40;96761.81;;;13.22;76.93
65181;BME280;51765;48.112;11.766;2024-01-30T12:13:07;96755.59;;;13.01;77.83
65181;BME280;51765;48.112;11.766;2024-01-30T12:15:34;96756.56;;;13.22;74.99
65181;BME280;51765;48.112;11.766;2024-01-30T12:18:04;96747.56;;;13.09;72.91
65181;BME280;51765;48.112;11.766;2024-01-30T12:20:31;96753.88;;;13.15;72.42
65181;BME280;51765;48.112;11.766;2024-01-30T12:22:59;96750.50;;;12.99;73.01
65181;BME280;51765;48.112;11.766;2024-01-30T12:25:26;96748.28;;;12.75;72.58
65181;BME280;51765;48.112;11.766;2024-01-30T12:27:52;96740.91;;;12.85;72.24
65181;BME280;51765;48.112;11.766;2024-01-30T12:30:20;96743.34;;;12.87;72.43
65181;BME280;51765;48.112;11.766;2024-01-30T12:32:48;96737.69;;;12.90;71.41
65181;BME280;51765;48.112;11.766;2024-01-30T12:35:16;96734.59;;;13.08;71.29
65181;BME280;51765;48.112;11.766;2024-01-30T12:37:43;96741.66;;;13.07;69.12
65181;BME280;51765;48.112;11.766;2024-01-30T12:40:13;96729.97;;;13.16;69.17
65181;BME280;51765;48.112;11.766;2024-01-30T12:42:40;96734.84;;;13.48;67.78
65181;BME280;51765;48.112;11.766;2024-01-30T12:45:13;96740.81;;;13.63;69.56